createdAt,value
2019-05-23T00:01:57.468Z,14.23
2019-05-23T00:04:42.571Z,14.75
2019-05-23T00:07:15.551Z,15.00
2019-05-23T00:09:44.416Z,14.95
2019-05-23T00:12:31.206Z,14.50
2019-05-23T00:15:02.299Z,15.63
2019-05-23T00:17:33.311Z,15.75
2019-05-23T00:20:02.456Z,15.15
2019-05-23T00:22:31.257Z,13.93
2019-05-23T00:25:01.015Z,15.10
2019-05-23T00:27:31.903Z,13.48
2019-05-23T00:30:02.297Z,14.25
2019-05-23T00:32:33.055Z,15.72
2019-05-23T00:35:08.515Z,14.50
2019-05-23T00:37:37.327Z,15.05
2019-05-23T00:40:09.232Z,15.78
2019-05-23T00:42:37.771Z,15.72
2019-05-23T00:45:10.116Z,16.10
2019-05-23T00:47:39.558Z,15.85
2019-05-23T00:50:10.771Z,16.05
2019-05-23T00:52:40.485Z,15.55
2019-05-23T00:55:12.939Z,13.70
2019-05-23T00:57:41.943Z,14.87
2019-05-23T01:00:13.287Z,15.63
2019-05-23T01:02:43.110Z,14.78
2019-05-23T01:05:13.560Z,13.68
2019-05-23T01:07:44.781Z,13.55
2019-05-23T01:10:16.482Z,14.33
2019-05-23T01:12:45.831Z,12.82
2019-05-23T01:15:16.626Z,13.10
2019-05-23T01:17:46.292Z,13.88
2019-05-23T01:20:19.318Z,14.18
2019-05-23T01:22:49.080Z,14.10
2019-05-23T01:25:21.159Z,15.43
2019-05-23T01:27:50.401Z,17.50
2019-05-23T01:30:27.612Z,18.82
2019-05-23T01:32:57.859Z,19.65
2019-05-23T01:35:28.007Z,21.07
2019-05-23T01:37:57.103Z,21.93
2019-05-23T01:40:27.539Z,21.23
2019-05-23T01:42:56.998Z,16.90
2019-05-23T01:45:27.477Z,17.12
2019-05-23T01:47:56.326Z,18.50
2019-05-23T01:50:26.491Z,22.10
2019-05-23T01:52:55.670Z,17.17
2019-05-23T01:55:24.395Z,16.12
2019-05-23T01:57:53.895Z,15.95
2019-05-23T02:00:24.840Z,17.27
2019-05-23T02:02:55.071Z,16.60
2019-05-23T02:05:25.035Z,16.12
2019-05-23T02:07:54.905Z,14.60
2019-05-23T02:10:24.369Z,16.30
2019-05-23T02:12:53.819Z,15.35
2019-05-23T02:15:23.543Z,15.30
2019-05-23T02:17:52.735Z,15.78
2019-05-23T02:20:22.403Z,15.43
2019-05-23T02:22:51.857Z,14.40
2019-05-23T02:25:23.205Z,13.95
2019-05-23T02:27:53.425Z,15.90
2019-05-23T02:30:34.123Z,16.10
2019-05-23T02:32:53.272Z,14.55
2019-05-23T02:35:23.605Z,13.95
2019-05-23T02:37:59.756Z,15.68
2019-05-23T02:40:42.263Z,16.67
2019-05-23T02:43:21.744Z,17.25
2019-05-23T02:45:55.612Z,17.02
2019-05-23T02:48:25.799Z,16.25
2019-05-23T02:51:07.067Z,12.65
2019-05-23T02:53:40.616Z,15.18
2019-05-23T02:56:12.269Z,17.73
2019-05-23T02:59:01.933Z,15.65
2019-05-23T03:01:50.044Z,17.37
2019-05-23T03:04:20.990Z,14.78
2019-05-23T03:06:52.072Z,17.87
2019-05-23T03:09:24.025Z,13.88
2019-05-23T03:11:56.655Z,15.98
2019-05-23T03:14:27.339Z,15.72
2019-05-23T03:16:58.936Z,17.35
2019-05-23T03:19:36.984Z,16.35
2019-05-23T03:22:46.625Z,16.37
2019-05-23T03:25:35.572Z,16.20
2019-05-23T03:28:07.645Z,18.90
2019-05-23T03:30:40.636Z,17.42
2019-05-23T03:33:13.154Z,18.57
2019-05-23T03:36:00.555Z,16.00
2019-05-23T03:38:29.512Z,19.67
2019-05-23T03:40:59.199Z,20.23
2019-05-23T03:43:28.225Z,20.10
2019-05-23T03:46:02.511Z,17.67
2019-05-23T03:48:31.791Z,20.90
2019-05-23T03:51:03.135Z,21.85
2019-05-23T03:53:32.139Z,21.05
2019-05-23T03:56:01.150Z,19.60
2019-05-23T03:58:29.971Z,16.75
2019-05-23T04:01:00.327Z,15.53
2019-05-23T04:03:29.922Z,17.98
2019-05-23T04:05:59.133Z,18.48
2019-05-23T04:08:28.331Z,19.48
2019-05-23T04:10:58.223Z,16.20
2019-05-23T04:13:27.359Z,16.10
2019-05-23T04:15:55.844Z,14.45
2019-05-23T04:18:25.128Z,14.47
2019-05-23T04:20:54.661Z,15.35
2019-05-23T04:23:23.357Z,15.10
2019-05-23T04:25:51.949Z,13.90
2019-05-23T04:28:20.995Z,13.40
2019-05-23T04:30:49.937Z,12.93
2019-05-23T04:33:18.826Z,14.05
2019-05-23T04:35:48.047Z,13.93
2019-05-23T04:38:16.840Z,14.98
2019-05-23T04:40:45.675Z,14.38
2019-05-23T04:43:14.618Z,14.68
2019-05-23T04:45:43.513Z,13.40
2019-05-23T04:48:12.509Z,14.03
2019-05-23T04:50:41.411Z,12.73
2019-05-23T04:53:10.571Z,11.83
2019-05-23T04:55:39.440Z,13.38
2019-05-23T04:58:08.011Z,13.00
2019-05-23T05:00:36.647Z,14.03
2019-05-23T05:03:06.703Z,13.43
2019-05-23T05:05:35.691Z,13.83
2019-05-23T05:08:04.785Z,12.55
2019-05-23T05:10:34.707Z,11.05
2019-05-23T05:13:03.779Z,12.07
2019-05-23T05:15:33.228Z,13.03
2019-05-23T05:18:02.628Z,12.60
2019-05-23T05:20:31.173Z,10.75
2019-05-23T05:22:59.943Z,11.50
2019-05-23T05:25:29.235Z,11.28
2019-05-23T05:27:58.515Z,12.45
2019-05-23T05:30:27.315Z,13.35
2019-05-23T05:32:57.024Z,11.85
2019-05-23T05:35:27.190Z,10.93
2019-05-23T05:37:56.177Z,10.28
2019-05-23T05:40:24.967Z,10.82
2019-05-23T05:42:54.343Z,8.80
2019-05-23T05:45:22.872Z,7.85
2019-05-23T05:47:51.344Z,10.68
2019-05-23T05:50:20.749Z,9.63
2019-05-23T05:52:49.912Z,8.18
2019-05-23T05:55:18.722Z,8.63
2019-05-23T05:57:47.328Z,9.63
2019-05-23T06:00:19.258Z,9.90
2019-05-23T06:03:03.734Z,9.78
2019-05-23T06:05:29.151Z,7.50
2019-05-23T06:07:58.540Z,8.75
2019-05-23T06:10:29.288Z,7.62
2019-05-23T06:12:58.072Z,6.55
2019-05-23T06:15:27.294Z,7.03
2019-05-23T06:17:55.844Z,5.70
2019-05-23T06:20:24.370Z,5.05
2019-05-23T06:22:52.979Z,4.20
2019-05-23T06:25:22.049Z,4.30
2019-05-23T06:27:50.927Z,4.97
2019-05-23T06:30:20.894Z,4.25
2019-05-23T06:32:49.455Z,4.40
2019-05-23T06:35:17.979Z,3.87
2019-05-23T06:37:46.908Z,3.72
2019-05-23T06:40:15.948Z,4.40
2019-05-23T06:42:44.940Z,3.80
2019-05-23T06:45:14.428Z,3.58
2019-05-23T06:47:42.892Z,3.65
2019-05-23T06:50:16.130Z,3.08
2019-05-23T06:52:45.118Z,3.37
2019-05-23T06:55:13.726Z,3.02
2019-05-23T06:57:42.506Z,3.15
2019-05-23T07:00:13.436Z,3.00
2019-05-23T07:02:42.700Z,3.33
2019-05-23T07:05:11.303Z,3.55
2019-05-23T07:07:41.536Z,3.45
2019-05-23T07:10:10.143Z,3.15
2019-05-23T07:12:38.684Z,3.15
2019-05-23T07:15:08.668Z,3.27
2019-05-23T07:17:38.357Z,3.17
2019-05-23T07:20:07.766Z,3.20
2019-05-23T07:22:36.769Z,3.35
2019-05-23T07:25:07.447Z,4.00
2019-05-23T07:27:35.904Z,3.25
2019-05-23T07:30:10.724Z,3.87
2019-05-23T07:35:07.992Z,5.78
2019-05-23T07:37:36.515Z,5.30
2019-05-23T07:40:06.755Z,5.67
2019-05-23T07:42:35.497Z,5.40
2019-05-23T07:45:07.522Z,5.15
2019-05-23T07:47:39.903Z,6.95
2019-05-23T07:50:11.067Z,7.45
2019-05-23T07:52:39.806Z,6.15
2019-05-23T07:55:10.517Z,8.00
2019-05-23T07:57:39.411Z,8.38
2019-05-23T08:00:10.236Z,7.53
2019-05-23T08:02:41.300Z,8.18
2019-05-23T08:05:12.132Z,7.70
2019-05-23T08:07:41.679Z,7.03
2019-05-23T08:10:13.423Z,6.90
2019-05-23T08:12:41.952Z,7.10
2019-05-23T08:15:11.498Z,6.75
2019-05-23T08:17:39.971Z,7.40
2019-05-23T08:20:11.150Z,7.30
2019-05-23T08:22:39.687Z,7.65
2019-05-23T08:25:08.678Z,7.67
2019-05-23T08:27:37.371Z,7.00
2019-05-23T08:30:08.917Z,6.95
2019-05-23T08:32:37.623Z,6.53
2019-05-23T08:35:07.208Z,6.55
2019-05-23T08:37:36.871Z,6.37
2019-05-23T08:40:07.444Z,6.90
2019-05-23T08:42:36.339Z,6.80
2019-05-23T08:45:08.368Z,7.05
2019-05-23T08:47:37.040Z,19.75
2019-05-23T08:50:08.312Z,6.60
2019-05-23T08:52:36.865Z,5.62
2019-05-23T08:55:20.224Z,6.00
2019-05-23T08:57:48.748Z,5.28
2019-05-23T09:00:20.647Z,7.20
2019-05-23T09:02:50.297Z,6.05
2019-05-23T09:05:19.487Z,6.12
2019-05-23T09:07:48.104Z,5.72
2019-05-23T09:10:18.308Z,5.58
2019-05-23T09:12:47.787Z,5.35
2019-05-23T09:15:17.010Z,5.80
2019-05-23T09:17:53.028Z,5.28
2019-05-23T09:20:16.988Z,5.45
2019-05-23T09:22:45.596Z,5.55
2019-05-23T09:25:14.733Z,6.20
2019-05-23T09:27:43.273Z,5.28
2019-05-23T09:30:12.427Z,5.05
2019-05-23T09:32:41.870Z,5.55
2019-05-23T09:35:20.859Z,5.83
2019-05-23T09:37:42.440Z,6.05
2019-05-23T09:40:11.279Z,5.58
2019-05-23T09:42:39.760Z,5.08
2019-05-23T09:45:09.057Z,6.00
2019-05-23T09:47:38.087Z,5.42
2019-05-23T09:50:10.576Z,3.45
2019-05-23T09:52:39.043Z,3.40
2019-05-23T09:55:08.049Z,3.27
2019-05-23T09:57:36.523Z,3.17
2019-05-23T10:00:11.332Z,4.00
2019-05-23T10:02:39.879Z,3.90
2019-05-23T10:05:11.548Z,3.75
2019-05-23T10:07:40.499Z,4.30
2019-05-23T10:10:11.767Z,4.83
2019-05-23T10:12:40.648Z,4.80
2019-05-23T10:15:12.211Z,4.72
2019-05-23T10:17:41.200Z,4.42
2019-05-23T10:20:11.092Z,3.05
2019-05-23T10:22:39.638Z,4.62
2019-05-23T10:25:08.612Z,4.55
2019-05-23T10:27:37.159Z,4.87
2019-05-23T10:30:10.050Z,4.80
2019-05-23T10:32:38.595Z,3.83
2019-05-23T10:35:08.098Z,3.50
2019-05-23T10:37:37.171Z,4.03
2019-05-23T10:40:06.354Z,3.55
2019-05-23T10:42:35.432Z,4.37
2019-05-23T10:45:05.914Z,4.90
2019-05-23T10:47:34.427Z,4.50
2019-05-23T10:50:07.650Z,4.22
2019-05-23T10:52:33.932Z,5.17
2019-05-23T10:55:02.462Z,4.90
2019-05-23T10:57:31.495Z,4.20
2019-05-23T10:59:59.939Z,3.85
2019-05-23T11:02:29.085Z,4.05
2019-05-23T11:04:58.636Z,3.55
2019-05-23T11:07:27.806Z,3.45
2019-05-23T11:09:56.797Z,3.72
2019-05-23T11:12:25.676Z,3.72
2019-05-23T11:14:54.484Z,3.55
2019-05-23T11:17:23.279Z,3.30
2019-05-23T11:19:51.831Z,3.08
2019-05-23T11:22:21.167Z,2.70
2019-05-23T11:24:49.965Z,2.90
2019-05-23T11:27:19.987Z,2.65
2019-05-23T11:29:48.199Z,2.10
2019-05-23T11:32:19.943Z,2.10
2019-05-23T11:34:47.579Z,3.40
2019-05-23T11:37:16.381Z,2.42
2019-05-23T11:39:49.726Z,2.50
2019-05-23T11:42:15.101Z,2.45
2019-05-23T11:44:43.643Z,2.40
2019-05-23T11:47:13.132Z,2.90
2019-05-23T11:49:43.797Z,3.47
2019-05-23T11:52:14.086Z,3.40
2019-05-23T11:54:43.345Z,3.52
2019-05-23T11:57:12.674Z,3.80
2019-05-23T11:59:41.492Z,2.90
2019-05-23T12:02:14.852Z,2.33
2019-05-23T12:04:43.640Z,2.50
2019-05-23T12:07:15.036Z,2.45
2019-05-23T12:09:43.902Z,3.02
2019-05-23T12:12:12.799Z,2.08
2019-05-23T12:14:41.785Z,2.75
2019-05-23T12:17:11.605Z,2.33
2019-05-23T12:19:40.120Z,2.10
2019-05-23T12:22:09.299Z,1.98
2019-05-23T12:24:37.862Z,2.10
2019-05-23T12:27:06.388Z,2.37
2019-05-23T12:29:35.796Z,2.15
2019-05-23T12:32:06.063Z,2.50
2019-05-23T12:34:34.888Z,2.55
2019-05-23T12:37:18.139Z,2.47
2019-05-23T12:39:33.814Z,2.50
2019-05-23T12:42:02.335Z,2.47
2019-05-23T12:44:31.187Z,2.30
2019-05-23T12:47:00.507Z,2.27
2019-05-23T12:49:33.438Z,2.20
2019-05-23T12:52:01.947Z,2.10
2019-05-23T12:54:31.053Z,3.10
2019-05-23T12:56:59.792Z,2.30
2019-05-23T12:59:28.864Z,3.05
2019-05-23T13:01:59.037Z,3.30
2019-05-23T13:04:28.132Z,3.42
2019-05-23T13:06:57.080Z,3.40
2019-05-23T13:09:25.871Z,2.90
2019-05-23T13:11:54.781Z,3.08
2019-05-23T13:14:23.587Z,3.80
2019-05-23T13:16:52.455Z,3.95
2019-05-23T13:19:21.004Z,3.52
2019-05-23T13:21:49.532Z,4.17
2019-05-23T13:24:18.426Z,4.05
2019-05-23T13:26:47.045Z,3.22
2019-05-23T13:29:16.003Z,2.90
2019-05-23T13:31:45.008Z,3.87
2019-05-23T13:34:13.463Z,3.35
2019-05-23T13:36:41.931Z,3.77
2019-05-23T13:39:10.663Z,4.40
2019-05-23T13:41:39.848Z,3.77
2019-05-23T13:44:08.500Z,3.40
2019-05-23T13:46:37.448Z,2.90
2019-05-23T13:49:06.355Z,3.00
2019-05-23T13:51:34.900Z,3.62
2019-05-23T13:54:03.736Z,3.50
2019-05-23T13:56:32.207Z,3.70
2019-05-23T13:59:00.903Z,4.17
2019-05-23T14:01:29.621Z,3.67
2019-05-23T14:03:58.224Z,3.17
2019-05-23T14:06:27.116Z,3.40
2019-05-23T14:08:55.645Z,3.17
2019-05-23T14:11:24.255Z,3.02
2019-05-23T14:13:59.591Z,3.00
2019-05-23T14:16:23.067Z,2.95
2019-05-23T14:18:52.072Z,3.25
2019-05-23T14:21:21.319Z,2.77
2019-05-23T14:23:49.771Z,2.95
2019-05-23T14:26:18.826Z,3.25
2019-05-23T14:28:47.657Z,3.40
2019-05-23T14:31:17.871Z,2.98
2019-05-23T14:33:48.313Z,3.27
2019-05-23T14:36:35.219Z,3.58
2019-05-23T14:39:06.988Z,3.90
2019-05-23T14:41:45.422Z,3.70
2019-05-23T14:44:10.471Z,2.80
2019-05-23T14:46:41.889Z,2.85
2019-05-23T14:49:12.808Z,3.80
2019-05-23T14:51:43.023Z,3.60
2019-05-23T14:54:16.500Z,3.50
2019-05-23T14:56:47.029Z,3.02
2019-05-23T14:59:16.054Z,2.85
2019-05-23T15:01:44.852Z,2.83
2019-05-23T15:04:14.008Z,3.10
2019-05-23T15:06:42.772Z,2.50
2019-05-23T15:09:11.348Z,2.60
2019-05-23T15:11:40.419Z,2.60
2019-05-23T15:14:09.208Z,2.25
2019-05-23T15:16:38.009Z,3.15
2019-05-23T15:19:07.452Z,2.80
2019-05-23T15:21:36.212Z,2.80
2019-05-23T15:24:05.436Z,2.87
2019-05-23T15:26:34.320Z,2.87
2019-05-23T15:29:03.109Z,3.37
2019-05-23T15:31:32.323Z,2.87
2019-05-23T15:34:00.873Z,2.83
2019-05-23T15:36:29.678Z,2.50
2019-05-23T15:39:09.101Z,2.35
2019-05-23T15:41:28.661Z,2.87
2019-05-23T15:43:57.507Z,2.60
2019-05-23T15:46:26.084Z,2.70
2019-05-23T15:48:54.558Z,3.27
2019-05-23T15:51:25.001Z,3.05
2019-05-23T15:53:58.196Z,2.83
2019-05-23T15:56:29.696Z,2.30
2019-05-23T15:59:05.799Z,2.62
2019-05-23T16:01:35.904Z,2.62
2019-05-23T16:04:06.654Z,2.50
2019-05-23T16:06:36.442Z,2.30
2019-05-23T16:09:25.397Z,2.42
2019-05-23T16:11:39.750Z,3.12
2019-05-23T16:14:09.001Z,2.42
2019-05-23T16:16:39.297Z,2.50
2019-05-23T16:19:08.379Z,2.37
2019-05-23T16:21:38.578Z,2.45
2019-05-23T16:24:08.163Z,2.70
2019-05-23T16:26:36.678Z,2.90
2019-05-23T16:29:06.363Z,3.20
2019-05-23T16:31:35.152Z,2.70
2019-05-23T16:34:04.443Z,2.52
2019-05-23T16:36:33.671Z,2.58
2019-05-23T16:39:02.561Z,3.00
2019-05-23T16:41:31.021Z,2.87
2019-05-23T16:43:59.578Z,3.12
2019-05-23T16:46:28.107Z,2.92
2019-05-23T16:48:56.643Z,3.27
2019-05-23T16:51:25.410Z,2.98
2019-05-23T16:53:54.336Z,3.08
2019-05-23T16:56:27.453Z,3.10
2019-05-23T16:59:03.544Z,3.10
2019-05-23T17:01:35.831Z,2.62
2019-05-23T17:04:08.644Z,2.40
2019-05-23T17:06:51.416Z,2.80
2019-05-23T17:09:21.703Z,2.83
2019-05-23T17:12:00.898Z,2.77
2019-05-23T17:14:31.158Z,2.55
2019-05-23T17:17:13.296Z,3.20
2019-05-23T17:19:46.558Z,3.02
2019-05-23T17:22:31.823Z,3.00
2019-05-23T17:25:13.869Z,3.17
2019-05-23T17:27:44.491Z,3.25
2019-05-23T17:30:33.569Z,4.45
2019-05-23T17:33:02.955Z,3.27
2019-05-23T17:35:31.529Z,3.05
2019-05-23T17:38:00.311Z,3.10
2019-05-23T17:40:29.743Z,2.85
2019-05-23T17:42:58.628Z,3.20
2019-05-23T17:45:28.657Z,3.30
2019-05-23T17:47:58.260Z,3.40
2019-05-23T17:50:27.375Z,3.17
2019-05-23T17:52:56.256Z,2.98
2019-05-23T17:55:26.595Z,3.58
2019-05-23T17:57:56.903Z,3.87
2019-05-23T18:00:27.269Z,3.00
2019-05-23T18:02:55.747Z,4.15
2019-05-23T18:05:24.627Z,4.70
2019-05-23T18:07:53.540Z,3.83
2019-05-23T18:10:22.730Z,3.70
2019-05-23T18:12:51.847Z,4.17
2019-05-23T18:15:20.837Z,3.70
2019-05-23T18:17:49.614Z,3.50
2019-05-23T18:20:18.449Z,4.20
2019-05-23T18:22:47.170Z,3.77
2019-05-23T18:25:17.338Z,3.62
2019-05-23T18:27:46.051Z,3.87
2019-05-23T18:30:34.850Z,3.95
2019-05-23T18:33:04.324Z,3.72
2019-05-23T18:35:33.086Z,4.10
2019-05-23T18:38:01.862Z,4.15
2019-05-23T18:40:30.866Z,4.10
2019-05-23T18:42:59.743Z,4.08
2019-05-23T18:45:29.096Z,4.30
2019-05-23T18:47:57.942Z,3.90
2019-05-23T18:50:28.340Z,4.33
2019-05-23T18:52:57.659Z,4.53
2019-05-23T18:55:26.907Z,4.35
2019-05-23T18:57:55.383Z,5.37
2019-05-23T19:00:44.569Z,4.50
2019-05-23T19:03:14.582Z,5.12
2019-05-23T19:05:43.345Z,4.60
2019-05-23T19:08:12.140Z,5.15
2019-05-23T19:10:41.211Z,5.17
2019-05-23T19:13:09.756Z,5.03
2019-05-23T19:15:38.459Z,4.95
2019-05-23T19:18:07.835Z,5.20
2019-05-23T19:20:38.974Z,5.45
2019-05-23T19:23:08.989Z,5.80
2019-05-23T19:25:37.511Z,5.87
2019-05-23T19:28:07.971Z,6.25
2019-05-23T19:30:37.103Z,5.42
2019-05-23T19:33:05.580Z,5.65
2019-05-23T19:35:34.113Z,5.22
2019-05-23T19:38:02.978Z,5.42
2019-05-23T19:40:31.725Z,5.87
2019-05-23T19:43:00.186Z,5.30
2019-05-23T19:45:29.274Z,7.08
2019-05-23T19:47:57.815Z,5.80
2019-05-23T19:50:27.980Z,5.85
2019-05-23T19:52:56.454Z,5.70
2019-05-23T19:55:25.175Z,6.20
2019-05-23T19:57:54.595Z,6.10
2019-05-23T20:00:23.601Z,7.42
2019-05-23T20:02:56.636Z,6.08
2019-05-23T20:05:35.660Z,6.20
2019-05-23T20:08:04.852Z,7.85
2019-05-23T20:10:34.703Z,6.62
2019-05-23T20:13:03.419Z,7.20
2019-05-23T20:15:32.047Z,6.58
2019-05-23T20:18:00.571Z,6.72
2019-05-23T20:20:29.788Z,6.87
2019-05-23T20:22:58.345Z,7.08
2019-05-23T20:25:27.084Z,7.80
2019-05-23T20:27:55.820Z,6.78
2019-05-23T20:30:33.552Z,7.37
2019-05-23T20:33:02.075Z,7.78
2019-05-23T20:35:30.896Z,7.62
2019-05-23T20:37:59.692Z,7.67
2019-05-23T20:40:28.518Z,7.87
2019-05-23T20:42:57.275Z,8.33
2019-05-23T20:45:26.176Z,7.97
2019-05-23T20:47:54.628Z,8.60
2019-05-23T20:50:23.447Z,7.83
2019-05-23T20:52:51.899Z,8.15
2019-05-23T20:55:20.375Z,8.63
2019-05-23T20:57:49.240Z,8.65
2019-05-23T21:00:20.165Z,8.78
2019-05-23T21:02:48.992Z,7.97
2019-05-23T21:05:17.519Z,8.15
2019-05-23T21:07:46.640Z,8.30
2019-05-23T21:10:18.196Z,7.85
2019-05-23T21:12:47.071Z,8.03
2019-05-23T21:15:15.967Z,7.87
2019-05-23T21:17:44.776Z,8.33
2019-05-23T21:20:13.674Z,7.90
2019-05-23T21:22:42.200Z,8.05
2019-05-23T21:25:11.007Z,7.95
2019-05-23T21:27:39.486Z,8.13
2019-05-23T21:30:07.963Z,8.05
2019-05-23T21:32:36.492Z,7.62
2019-05-23T21:35:07.385Z,8.43
2019-05-23T21:37:35.850Z,8.70
2019-05-23T21:40:06.095Z,8.13
2019-05-23T21:42:47.355Z,8.25
2019-05-23T21:45:05.931Z,8.23
2019-05-23T21:47:34.408Z,8.25
2019-05-23T21:50:03.923Z,8.38
2019-05-23T21:52:32.399Z,8.65
2019-05-23T21:55:01.283Z,8.80
2019-05-23T21:57:30.172Z,8.60
2019-05-23T21:59:58.627Z,8.45
2019-05-23T22:02:29.409Z,8.98
2019-05-23T22:04:59.571Z,8.93
2019-05-23T22:07:28.041Z,8.95
2019-05-23T22:09:56.499Z,9.50
2019-05-23T22:12:24.979Z,10.55
2019-05-23T22:14:53.714Z,10.45
2019-05-23T22:17:24.204Z,10.65
2019-05-23T22:19:52.830Z,10.30
2019-05-23T22:22:21.307Z,10.65
2019-05-23T22:24:49.767Z,10.90
2019-05-23T22:27:18.398Z,11.85
2019-05-23T22:29:46.973Z,11.57
2019-05-23T22:32:17.469Z,12.23
2019-05-23T22:34:48.001Z,11.70
2019-05-23T22:37:18.146Z,12.47
2019-05-23T22:39:46.600Z,12.82
2019-05-23T22:42:16.015Z,12.98
2019-05-23T22:44:44.471Z,13.65
2019-05-23T22:47:13.396Z,13.72
2019-05-23T22:49:42.199Z,14.90
2019-05-23T22:52:11.091Z,14.53
2019-05-23T22:54:39.543Z,14.33
2019-05-23T22:57:08.029Z,15.95
2019-05-23T22:59:36.861Z,15.08
2019-05-23T23:02:07.384Z,15.10
2019-05-23T23:04:35.831Z,15.20
2019-05-23T23:07:04.664Z,16.20
2019-05-23T23:09:33.120Z,16.00
2019-05-23T23:12:02.043Z,16.57
2019-05-23T23:14:30.500Z,16.77
2019-05-23T23:16:59.323Z,15.88
2019-05-23T23:19:27.774Z,16.10
2019-05-23T23:21:56.264Z,16.60
2019-05-23T23:24:25.161Z,16.55
2019-05-23T23:26:54.085Z,16.25
2019-05-23T23:29:22.563Z,17.87
2019-05-23T23:31:51.091Z,19.25
2019-05-23T23:34:19.707Z,18.42
2019-05-23T23:36:48.439Z,17.50
2019-05-23T23:39:17.232Z,16.95
2019-05-23T23:41:45.691Z,16.32
2019-05-23T23:44:15.195Z,17.57
2019-05-23T23:47:01.463Z,18.00
2019-05-23T23:49:48.370Z,18.87
2019-05-23T23:52:35.432Z,19.87
2019-05-23T23:55:23.872Z,18.65
2019-05-23T23:58:00.784Z,17.27
